55.7°F
Current conditions from King Hill
Updated every 5 minutes
 
  Tuesday July 29, 2014

Station Historical Data
Daily Summary for November 2, 2011 Units:  Metric    English   Both
« Previous Day
Next Day »
Daily Weekly Monthly Yearly Custom
  High: Low: Average:
Temperature: 14.7 °C 1.3 °C 7.8 °C
Dew Point: 3.4 °C -1.5 °C 1.2 °C
Humidity: 83% 46% 64%
Wind Speed: 16.1km/h 1.6km/h 8.7km/h
Wind Gust: 30.6km/h - -
Wind- - SSW
Pressure: 1026.3 hPa 1019.2 hPa -
Precipitation: 0 mm    
Historical Graphs
 
 
Tabular Data for November 2, 2011
Time Temperature Dew Point Pressure Wind Wind Speed Wind Gust Humidity Daily Rainfall
00:00 3.8 °C -0.4 °C 1025.3 hPa SSW 3.2 km/h 11.3 km/h 74% 0 mm
00:05 3.9 °C -0.3 °C 1025.3 hPa SSW 3.2 km/h 9.7 km/h 74% 0 mm
00:10 4 °C -0.2 °C 1025.3 hPa SSW 3.2 km/h 9.7 km/h 74% 0 mm
00:15 4 °C -0.2 °C 1025.3 hPa SSW 4.8 km/h 9.7 km/h 74% 0 mm
00:20 4.1 °C -0.2 °C 1024.9 hPa SSW 3.2 km/h 9.7 km/h 74% 0 mm
00:25 4 °C -0.4 °C 1025.3 hPa SSW 3.2 km/h 9.7 km/h 73% 0 mm
00:30 3.9 °C -0.4 °C 1025.3 hPa SSW 3.2 km/h 8 km/h 73% 0 mm
00:40 3.4 °C -0.6 °C 1025.3 hPa SSW 4.8 km/h 8 km/h 75% 0 mm
00:45 3.2 °C -0.8 °C 1025.3 hPa SSW 1.6 km/h 8 km/h 75% 0 mm
00:50 3.1 °C -0.8 °C 1025.3 hPa Calm   6.4 km/h 76% 0 mm
00:55 2.7 °C -1.1 °C 1025.3 hPa Calm   3.2 km/h 76% 0 mm
01:00 2.6 °C -1.1 °C 1025.3 hPa Calm   3.2 km/h 77% 0 mm
01:05 2.4 °C -1 °C 1025.3 hPa Calm   1.6 km/h 78% 0 mm
01:10 2.4 °C -0.8 °C 1025.3 hPa Calm     79% 0 mm
01:15 2.6 °C -0.7 °C 1025.6 hPa Calm   1.6 km/h 79% 0 mm
01:20 2.6 °C -0.7 °C 1025.6 hPa Calm   1.6 km/h 79% 0 mm
01:25 2.4 °C -0.8 °C 1025.6 hPa SSW 1.6 km/h 6.4 km/h 79% 0 mm
01:30 2.4 °C -0.9 °C 1025.6 hPa Calm   6.4 km/h 79% 0 mm
01:35 2.3 °C -0.9 °C 1025.6 hPa Calm   1.6 km/h 79% 0 mm
01:45 2.4 °C -0.7 °C 1025.3 hPa Calm   6.4 km/h 80% 0 mm
01:50 2.3 °C -0.9 °C 1025.3 hPa Calm   6.4 km/h 79% 0 mm
01:55 2.2 °C -1.1 °C 1025.3 hPa Calm   6.4 km/h 79% 0 mm
02:00 2.2 °C -1.1 °C 1025.3 hPa Calm   6.4 km/h 79% 0 mm
02:05 2.1 °C -1.1 °C 1025.3 hPa SSW 1.6 km/h 6.4 km/h 80% 0 mm
02:10 2 °C -1.1 °C 1025.3 hPa SSW 3.2 km/h 6.4 km/h 80% 0 mm
02:15 1.8 °C -1.2 °C 1025.3 hPa SSW 1.6 km/h 6.4 km/h 80% 0 mm
02:20 1.7 °C -1.3 °C 1025.3 hPa Calm   6.4 km/h 80% 0 mm
02:25 1.7 °C -1.2 °C 1025.3 hPa Calm   3.2 km/h 81% 0 mm
02:30 1.6 °C -1.3 °C 1025.3 hPa Calm   6.4 km/h 81% 0 mm
02:35 1.4 °C -1.5 °C 1025.3 hPa SSW 1.6 km/h 8 km/h 81% 0 mm
02:40 1.3 °C -1.4 °C 1025.3 hPa SSW 3.2 km/h 8 km/h 82% 0 mm
02:45 1.3 °C -1.4 °C 1025.3 hPa SSW 1.6 km/h 8 km/h 82% 0 mm
02:50 1.3 °C -1.4 °C 1025.3 hPa SSW 1.6 km/h 6.4 km/h 82% 0 mm
02:55 1.3 °C -1.2 °C 1025.3 hPa SSW 3.2 km/h 8 km/h 83% 0 mm
03:00 1.7 °C -0.9 °C 1025.3 hPa SSW 3.2 km/h 8 km/h 83% 0 mm
03:05 1.9 °C -0.8 °C 1025.3 hPa SSW 3.2 km/h 8 km/h 82% 0 mm
03:10 2.1 °C -0.7 °C 1025.3 hPa Calm   8 km/h 82% 0 mm
03:15 2.2 °C -0.6 °C 1025.3 hPa SW 4.8 km/h 9.7 km/h 82% 0 mm
03:20 2.2 °C -0.7 °C 1025.3 hPa SSW 3.2 km/h 9.7 km/h 81% 0 mm
03:30 2.1 °C -0.9 °C 1025.3 hPa SSW 4.8 km/h 8 km/h 81% 0 mm
03:35 2 °C -0.9 °C 1025.3 hPa SSW 4.8 km/h 8 km/h 81% 0 mm
03:40 1.9 °C -1 °C 1025.3 hPa SSW 4.8 km/h 8 km/h 81% 0 mm
03:45 1.7 °C -1.2 °C 1025.3 hPa SSW 3.2 km/h 8 km/h 81% 0 mm
03:50 1.7 °C -1 °C 1025.3 hPa SSW 6.4 km/h 8 km/h 82% 0 mm
03:55 2.1 °C -0.7 °C 1025.3 hPa SSW 6.4 km/h 9.7 km/h 82% 0 mm
04:00 2.2 °C -0.7 °C 1025.3 hPa SSW 6.4 km/h 9.7 km/h 81% 0 mm
04:05 2.3 °C -0.7 °C 1025.3 hPa SSW 1.6 km/h 9.7 km/h 81% 0 mm
04:10 2.3 °C -0.8 °C 1025.3 hPa SSW 3.2 km/h 8 km/h 80% 0 mm
04:15 2.4 °C -0.7 °C 1025.3 hPa SSW 3.2 km/h 9.7 km/h 80% 0 mm
04:20 2.3 °C -0.6 °C 1025.3 hPa SSW 1.6 km/h 9.7 km/h 81% 0 mm
04:25 2.5 °C -0.4 °C 1025.3 hPa SSW 4.8 km/h 9.7 km/h 81% 0 mm
04:30 2.7 °C -0.4 °C 1025.3 hPa SSW 1.6 km/h 9.7 km/h 80% 0 mm
04:35 2.8 °C -0.3 °C 1025.3 hPa SSW 3.2 km/h 9.7 km/h 80% 0 mm
04:40 3 °C -0.1 °C 1025.6 hPa SSW 4.8 km/h 11.3 km/h 80% 0 mm
04:45 3.2 °C -0.1 °C 1025.6 hPa SSW 3.2 km/h 11.3 km/h 79% 0 mm
04:50 3.1 °C -0.3 °C 1025.6 hPa SSW 4.8 km/h 11.3 km/h 78% 0 mm
04:55 3.1 °C -0.4 °C 1025.6 hPa SW 6.4 km/h 11.3 km/h 78% 0 mm
05:00 3.1 °C -0.2 °C 1025.6 hPa SSW 4.8 km/h 11.3 km/h 79% 0 mm
05:05 3.2 °C -0.1 °C 1025.6 hPa SSW 6.4 km/h 11.3 km/h 79% 0 mm
05:10 3.2 °C -0.2 °C 1025.6 hPa SSW 4.8 km/h 11.3 km/h 78% 0 mm
05:15 3.3 °C -0.2 °C 1025.6 hPa SSW 6.4 km/h 11.3 km/h 78% 0 mm
05:20 3.6 °C 0.1 °C 1025.6 hPa SSW 3.2 km/h 12.9 km/h 78% 0 mm
05:25 3.8 °C 0.2 °C 1025.6 hPa SW 4.8 km/h 12.9 km/h 77% 0 mm
05:30 3.9 °C 0.1 °C 1025.6 hPa SSW 3.2 km/h 11.3 km/h 76% 0 mm
05:40 3.7 °C -0.1 °C 1025.6 hPa SSW 3.2 km/h 11.3 km/h 76% 0 mm
05:45 3.8 °C -0.1 °C 1025.6 hPa SSW 4.8 km/h 11.3 km/h 76% 0 mm
05:50 3.8 °C 0 °C 1025.6 hPa SSW 8 km/h 11.3 km/h 76% 0 mm
05:55 3.8 °C 0 °C 1026 hPa SSW 6.4 km/h 11.3 km/h 76% 0 mm
06:00 3.7 °C -0.2 °C 1026 hPa SSW 6.4 km/h 11.3 km/h 76% 0 mm
06:05 3.6 °C -0.3 °C 1026 hPa SSW 6.4 km/h 11.3 km/h 76% 0 mm
06:10 3.5 °C -0.2 °C 1025.6 hPa SSW 4.8 km/h 11.3 km/h 77% 0 mm
06:20 3.8 °C -0.1 °C 1025.6 hPa SW 6.4 km/h 14.5 km/h 76% 0 mm
06:25 3.6 °C -0.3 °C 1025.6 hPa SSW 6.4 km/h 11.3 km/h 76% 0 mm
06:30 3.5 °C -0.2 °C 1025.6 hPa SSW 3.2 km/h 14.5 km/h 77% 0 mm
06:35 3.6 °C -0.1 °C 1025.6 hPa SSW 4.8 km/h 14.5 km/h 77% 0 mm
06:40 3.6 °C -0.1 °C 1025.6 hPa SSW 4.8 km/h 11.3 km/h 77% 0 mm
06:45 3.6 °C -0.1 °C 1025.6 hPa SSW 3.2 km/h 11.3 km/h 77% 0 mm
06:50 3.7 °C 0 °C 1025.6 hPa SSW 3.2 km/h 11.3 km/h 77% 0 mm
06:55 3.7 °C 0.1 °C 1025.6 hPa SSW 3.2 km/h 11.3 km/h 77% 0 mm
07:00 3.7 °C 0.1 °C 1025.6 hPa SSW 4.8 km/h 14.5 km/h 77% 0 mm
07:05 3.7 °C 0 °C 1025.6 hPa SW 3.2 km/h 14.5 km/h 77% 0 mm
07:10 3.6 °C -0.1 °C 1025.6 hPa Calm   9.7 km/h 77% 0 mm
07:15 3.5 °C -0.2 °C 1026 hPa SSW 3.2 km/h 9.7 km/h 77% 0 mm
07:20 3.3 °C -0.3 °C 1026 hPa SSW 3.2 km/h 8 km/h 77% 0 mm
07:25 3.2 °C -0.5 °C 1026 hPa SSW 1.6 km/h 8 km/h 77% 0 mm
07:30 3.1 °C -0.4 °C 1026 hPa SSW 3.2 km/h 8 km/h 78% 0 mm
07:40 3.2 °C -0.2 °C 1026 hPa SSW 1.6 km/h 11.3 km/h 78% 0 mm
07:45 3.3 °C -0.2 °C 1026 hPa SSW 4.8 km/h 11.3 km/h 78% 0 mm
07:50 3.6 °C 0.1 °C 1026 hPa SSW 6.4 km/h 12.9 km/h 78% 0 mm
07:55 3.9 °C 0.2 °C 1026 hPa SSW 6.4 km/h 12.9 km/h 77% 0 mm
08:00 4.2 °C 0.3 °C 1026 hPa SSW 4.8 km/h 14.5 km/h 76% 0 mm
08:05 4.4 °C 0.3 °C 1026.3 hPa SSW 6.4 km/h 16.1 km/h 75% 0 mm
08:10 4.4 °C 0.4 °C 1026.3 hPa SSW 6.4 km/h 16.1 km/h 75% 0 mm
08:15 4.4 °C 0.4 °C 1026.3 hPa SSW 8 km/h 12.9 km/h 75% 0 mm
08:20 4.5 °C 0.3 °C 1026.3 hPa SSW 6.4 km/h 16.1 km/h 74% 0 mm
08:25 4.6 °C 0.3 °C 1026.3 hPa SSW 8 km/h 16.1 km/h 74% 0 mm
08:30 4.8 °C 0.3 °C 1026.3 hPa SSW 8 km/h 17.7 km/h 73% 0 mm
08:35 5 °C 0.4 °C 1026.3 hPa SSW 9.7 km/h 17.7 km/h 72% 0 mm
08:40 5.2 °C 0.6 °C 1026.3 hPa SSW 8 km/h 19.3 km/h 72% 0 mm
08:45 5.2 °C 0.6 °C 1026.3 hPa SSW 4.8 km/h 19.3 km/h 72% 0 mm
08:50 5.3 °C 0.7 °C 1026.3 hPa SSW 9.7 km/h 16.1 km/h 72% 0 mm
08:55 5.5 °C 0.7 °C 1026.3 hPa SSW 8 km/h 20.9 km/h 71% 0 mm
09:00 5.6 °C 0.7 °C 1026.3 hPa South 3.2 km/h 20.9 km/h 71% 0 mm
09:05 5.6 °C 0.7 °C 1026.3 hPa SSW 8 km/h 16.1 km/h 71% 0 mm
09:10 5.6 °C 0.8 °C 1026.3 hPa SSW 8 km/h 17.7 km/h 71% 0 mm
09:15 5.7 °C 0.8 °C 1026.3 hPa SSW 8 km/h 17.7 km/h 71% 0 mm
09:20 5.8 °C 0.7 °C 1026 hPa SSW 8 km/h 17.7 km/h 70% 0 mm
09:25 6 °C 0.9 °C 1026.3 hPa SSW 8 km/h 19.3 km/h 70% 0 mm
09:30 6.4 °C 1.2 °C 1026.3 hPa SSW 9.7 km/h 20.9 km/h 69% 0 mm
09:35 6.8 °C 1.1 °C 1026 hPa SSW 11.3 km/h 20.9 km/h 67% 0 mm
09:40 7.2 °C 1.4 °C 1026 hPa SSW 8 km/h 19.3 km/h 67% 0 mm
09:45 7.3 °C 1 °C 1026 hPa SSW 11.3 km/h 19.3 km/h 64% 0 mm
09:50 7.4 °C 1.3 °C 1026 hPa SSW 9.7 km/h 19.3 km/h 65% 0 mm
09:55 7.6 °C 1.2 °C 1026 hPa SW 12.9 km/h 19.3 km/h 64% 0 mm
10:00 7.6 °C 1.4 °C 1026 hPa SSW 9.7 km/h 19.3 km/h 65% 0 mm
10:05 7.6 °C 1.2 °C 1026 hPa SSW 12.9 km/h 19.3 km/h 64% 0 mm
10:10 7.8 °C 1.2 °C 1025.6 hPa SSW 12.9 km/h 20.9 km/h 63% 0 mm
10:15 7.9 °C 1.6 °C 1025.6 hPa SW 11.3 km/h 20.9 km/h 64% 0 mm
10:20 8.2 °C 1.6 °C 1025.6 hPa SSW 11.3 km/h 20.9 km/h 63% 0 mm
10:25 8.4 °C 1.3 °C 1025.6 hPa SSW 14.5 km/h 24.1 km/h 61% 0 mm
10:35 8.6 °C 1.5 °C 1025.6 hPa SSW 9.7 km/h 25.7 km/h 61% 0 mm
10:40 8.8 °C 1.7 °C 1025.3 hPa SSW 9.7 km/h 25.7 km/h 61% 0 mm
10:45 8.8 °C 1.7 °C 1025.3 hPa SSW 12.9 km/h 24.1 km/h 61% 0 mm
10:50 9.1 °C 1.7 °C 1025.3 hPa SSW 11.3 km/h 24.1 km/h 60% 0 mm
10:55 9.2 °C 1.8 °C 1025.3 hPa SSW 11.3 km/h 24.1 km/h 60% 0 mm
11:00 9.6 °C 2.2 °C 1025.3 hPa SW 9.7 km/h 20.9 km/h 60% 0 mm
11:05 9.8 °C 1.9 °C 1025.3 hPa SSW 14.5 km/h 25.7 km/h 58% 0 mm
11:10 9.8 °C 1.9 °C 1025.3 hPa SSW 12.9 km/h 27.4 km/h 58% 0 mm
11:15 9.9 °C 2.1 °C 1025.3 hPa SSW 12.9 km/h 30.6 km/h 58% 0 mm
11:20 10.2 °C 1.8 °C 1025.3 hPa SW 14.5 km/h 30.6 km/h 56% 0 mm
11:25 10.4 °C 2.2 °C 1025.3 hPa SSW 11.3 km/h 24.1 km/h 57% 0 mm
11:35 11 °C 2.1 °C 1024.9 hPa SSW 12.9 km/h 22.5 km/h 54% 0 mm
11:40 11.2 °C 2.2 °C 1024.9 hPa SSW 11.3 km/h 22.5 km/h 54% 0 mm
11:50 11.2 °C 2.2 °C 1024.9 hPa SSW 14.5 km/h 24.1 km/h 54% 0 mm
11:55 11.2 °C 2.3 °C 1024.6 hPa SSW 11.3 km/h 25.7 km/h 54% 0 mm
12:00 11.4 °C 2.2 °C 1024.6 hPa SSW 9.7 km/h 25.7 km/h 53% 0 mm
12:05 11.7 °C 2.2 °C 1024.6 hPa SSW 11.3 km/h 25.7 km/h 52% 0 mm
12:10 11.7 °C 2.2 °C 1024.6 hPa SSW 14.5 km/h 27.4 km/h 52% 0 mm
12:15 12 °C 2.4 °C 1024.6 hPa SW 8 km/h 27.4 km/h 52% 0 mm
12:20 12.4 °C 2.8 °C 1024.3 hPa South 9.7 km/h 25.7 km/h 52% 0 mm
12:25 12.4 °C 2.6 °C 1024.3 hPa SSW 9.7 km/h 22.5 km/h 51% 0 mm
12:30 12.3 °C 2.4 °C 1024.3 hPa SW 12.9 km/h 22.5 km/h 51% 0 mm
12:35 12.3 °C 3 °C 1023.9 hPa SSW 9.7 km/h 22.5 km/h 53% 0 mm
12:40 12.7 °C 2.8 °C 1023.9 hPa South 9.7 km/h 22.5 km/h 51% 0 mm
12:45 12.8 °C 2.7 °C 1023.9 hPa South 11.3 km/h 19.3 km/h 50% 0 mm
12:50 12.9 °C 2.8 °C 1023.9 hPa SSW 6.4 km/h 19.3 km/h 50% 0 mm
12:55 12.8 °C 2.7 °C 1023.9 hPa SSW 11.3 km/h 24.1 km/h 50% 0 mm
13:00 12.7 °C 2.5 °C 1023.6 hPa SSW 14.5 km/h 24.1 km/h 50% 0 mm
13:05 12.5 °C 2.3 °C 1023.2 hPa SW 11.3 km/h 24.1 km/h 50% 0 mm
13:10 12.9 °C 2.8 °C 1023.2 hPa SW 8 km/h 22.5 km/h 50% 0 mm
13:15 13.1 °C 2.6 °C 1023.2 hPa SSW 12.9 km/h 22.5 km/h 49% 0 mm
13:25 13.3 °C 3.1 °C 1023.2 hPa SW 8 km/h 24.1 km/h 50% 0 mm
13:30 13.4 °C 2.9 °C 1022.9 hPa SW 9.7 km/h 22.5 km/h 49% 0 mm
13:35 13.6 °C 3.3 °C 1022.9 hPa SW 4.8 km/h 22.5 km/h 50% 0 mm
13:40 13.7 °C 2.6 °C 1022.9 hPa SSW 14.5 km/h 22.5 km/h 47% 0 mm
13:45 13.5 °C 2.7 °C 1022.6 hPa SW 12.9 km/h 22.5 km/h 48% 0 mm
13:50 13.5 °C 2.7 °C 1022.6 hPa SSW 11.3 km/h 22.5 km/h 48% 0 mm
13:55 13.6 °C 2.8 °C 1022.6 hPa SSW 11.3 km/h 22.5 km/h 48% 0 mm
14:00 13.7 °C 2.6 °C 1022.6 hPa SSW 14.5 km/h 22.5 km/h 47% 0 mm
14:05 13.7 °C 2.6 °C 1022.6 hPa SSW 12.9 km/h 22.5 km/h 47% 0 mm
14:10 13.8 °C 2.9 °C 1022.6 hPa SSW 9.7 km/h 22.5 km/h 48% 0 mm
14:15 13.8 °C 2.7 °C 1022.6 hPa SSW 14.5 km/h 24.1 km/h 47% 0 mm
14:20 13.9 °C 3.1 °C 1022.2 hPa SW 6.4 km/h 24.1 km/h 48% 0 mm
14:25 14 °C 2.9 °C 1022.2 hPa SW 14.5 km/h 24.1 km/h 47% 0 mm
14:35 14 °C 2.6 °C 1022.2 hPa SSW 14.5 km/h 22.5 km/h 46% 0 mm
14:40 14.2 °C 3.3 °C 1022.2 hPa SSW 8 km/h 22.5 km/h 48% 0 mm
14:45 14.6 °C 3.4 °C 1022.2 hPa SW 8 km/h 19.3 km/h 47% 0 mm
14:50 14.6 °C 3.4 °C 1022.2 hPa SSW 11.3 km/h 20.9 km/h 47% 0 mm
14:55 14.7 °C 3.2 °C 1021.9 hPa SSW 11.3 km/h 22.5 km/h 46% 0 mm
15:00 14.5 °C 3.3 °C 1021.9 hPa SSW 9.7 km/h 24.1 km/h 47% 0 mm
15:05 14.3 °C 2.9 °C 1021.9 hPa SSW 16.1 km/h 29 km/h 46% 0 mm
15:10 14.1 °C 2.9 °C 1021.9 hPa SSW 12.9 km/h 29 km/h 47% 0 mm
15:15 14.1 °C 3.2 °C 1021.9 hPa SSW 11.3 km/h 20.9 km/h 48% 0 mm
15:20 14.1 °C 2.9 °C 1021.9 hPa SSW 12.9 km/h 20.9 km/h 47% 0 mm
15:25 13.8 °C 2.7 °C 1021.9 hPa SW 12.9 km/h 27.4 km/h 47% 0 mm
15:30 13.7 °C 2.9 °C 1021.9 hPa SSW 11.3 km/h 27.4 km/h 48% 0 mm
15:35 13.7 °C 2.9 °C 1021.9 hPa SSW 14.5 km/h 29 km/h 48% 0 mm
15:40 13.7 °C 2.9 °C 1021.9 hPa SSW 11.3 km/h 29 km/h 48% 0 mm
15:45 13.8 °C 2.9 °C 1021.9 hPa SSW 12.9 km/h 24.1 km/h 48% 0 mm
15:50 13.7 °C 2.8 °C 1021.9 hPa SSW 8 km/h 22.5 km/h 48% 0 mm
15:55 13.6 °C 2.8 °C 1021.9 hPa SSW 9.7 km/h 17.7 km/h 48% 0 mm
16:00 13.7 °C 2.9 °C 1021.9 hPa South 11.3 km/h 19.3 km/h 48% 0 mm
16:05 13.8 °C 3 °C 1021.9 hPa SSW 9.7 km/h 25.7 km/h 48% 0 mm
16:10 13.8 °C 2.9 °C 1021.9 hPa SSW 11.3 km/h 25.7 km/h 48% 0 mm
16:15 13.5 °C 2.7 °C 1021.9 hPa SW 9.7 km/h 20.9 km/h 48% 0 mm
16:20 13.1 °C 2.6 °C 1021.9 hPa SW 9.7 km/h 22.5 km/h 49% 0 mm
16:30 12.7 °C 2.8 °C 1021.6 hPa SSW 11.3 km/h 22.5 km/h 51% 0 mm
16:35 12.7 °C 2.5 °C 1021.9 hPa SSW 9.7 km/h 25.7 km/h 50% 0 mm
16:40 12.7 °C 2.5 °C 1021.9 hPa SSW 11.3 km/h 25.7 km/h 50% 0 mm
16:45 12.6 °C 2.4 °C 1021.9 hPa SSW 9.7 km/h 20.9 km/h 50% 0 mm
16:50 12.3 °C 2.4 °C 1021.6 hPa SSW 12.9 km/h 27.4 km/h 51% 0 mm
16:55 12 °C 2.4 °C 1021.6 hPa SSW 11.3 km/h 27.4 km/h 52% 0 mm
17:00 11.8 °C 2.3 °C 1021.6 hPa SSW 11.3 km/h 24.1 km/h 52% 0 mm
17:05 11.8 °C 2.6 °C 1021.6 hPa SSW 9.7 km/h 24.1 km/h 53% 0 mm
17:10 11.8 °C 2.5 °C 1021.6 hPa SSW 6.4 km/h 19.3 km/h 53% 0 mm
17:15 11.7 °C 2.4 °C 1021.6 hPa SSW 6.4 km/h 12.9 km/h 53% 0 mm
17:20 11.5 °C 2.5 °C 1021.6 hPa SSW 8 km/h 12.9 km/h 54% 0 mm
17:25 11.3 °C 2.3 °C 1021.6 hPa South 6.4 km/h 17.7 km/h 54% 0 mm
17:30 11.2 °C 2.4 °C 1021.6 hPa SW 4.8 km/h 17.7 km/h 55% 0 mm
17:35 11 °C 2.3 °C 1021.6 hPa SSW 9.7 km/h 16.1 km/h 55% 0 mm
17:40 10.9 °C 2.2 °C 1021.6 hPa SSW 9.7 km/h 19.3 km/h 55% 0 mm
17:45 10.8 °C 2.4 °C 1021.6 hPa SSW 6.4 km/h 19.3 km/h 56% 0 mm
17:50 10.7 °C 2.3 °C 1021.6 hPa SSW 9.7 km/h 19.3 km/h 56% 0 mm
17:55 10.6 °C 2.2 °C 1021.6 hPa SSW 8 km/h 19.3 km/h 56% 0 mm
18:00 10.4 °C 2.3 °C 1021.6 hPa SW 8 km/h 19.3 km/h 57% 0 mm
18:05 10.4 °C 2.2 °C 1021.6 hPa SSW 4.8 km/h 19.3 km/h 57% 0 mm
18:10 10.3 °C 2.2 °C 1021.6 hPa SSW 8 km/h 19.3 km/h 57% 0 mm
18:15 10.3 °C 2.2 °C 1021.6 hPa SSW 8 km/h 19.3 km/h 57% 0 mm
18:20 10.3 °C 2.2 °C 1021.6 hPa SSW 8 km/h 20.9 km/h 57% 0 mm
18:30 10.3 °C 2.1 °C 1021.6 hPa SSW 8 km/h 19.3 km/h 57% 0 mm
18:35 10.3 °C 2.1 °C 1021.6 hPa SSW 9.7 km/h 20.9 km/h 57% 0 mm
18:40 10.3 °C 1.9 °C 1021.6 hPa SSW 11.3 km/h 20.9 km/h 56% 0 mm
18:45 10.2 °C 1.8 °C 1021.6 hPa SSW 9.7 km/h 20.9 km/h 56% 0 mm
18:50 10.2 °C 2.1 °C 1021.6 hPa SSW 9.7 km/h 19.3 km/h 57% 0 mm
18:55 10.1 °C 1.9 °C 1021.2 hPa SSW 11.3 km/h 24.1 km/h 57% 0 mm
19:00 10.1 °C 1.7 °C 1021.2 hPa SSW 12.9 km/h 24.1 km/h 56% 0 mm
19:05 10.1 °C 1.7 °C 1021.2 hPa SSW 9.7 km/h 25.7 km/h 56% 0 mm
19:10 10.2 °C 1.8 °C 1021.2 hPa SSW 11.3 km/h 25.7 km/h 56% 0 mm
19:15 10.1 °C 1.7 °C 1021.2 hPa SSW 11.3 km/h 25.7 km/h 56% 0 mm
19:20 10.1 °C 1.7 °C 1021.2 hPa SSW 11.3 km/h 25.7 km/h 56% 0 mm
19:25 10 °C 1.6 °C 1021.2 hPa SSW 12.9 km/h 24.1 km/h 56% 0 mm
19:30 10 °C 1.9 °C 1021.2 hPa SSW 12.9 km/h 24.1 km/h 57% 0 mm
19:35 10 °C 1.9 °C 1021.2 hPa SSW 12.9 km/h 24.1 km/h 57% 0 mm
19:40 9.9 °C 1.8 °C 1021.2 hPa SSW 11.3 km/h 25.7 km/h 57% 0 mm
19:45 9.9 °C 1.8 °C 1021.2 hPa SSW 11.3 km/h 25.7 km/h 57% 0 mm
19:50 9.8 °C 1.7 °C 1020.9 hPa SSW 14.5 km/h 27.4 km/h 57% 0 mm
19:55 9.8 °C 1.7 °C 1020.9 hPa SSW 14.5 km/h 29 km/h 57% 0 mm
20:00 9.7 °C 1.8 °C 1020.9 hPa SSW 9.7 km/h 29 km/h 58% 0 mm
20:05 9.7 °C 1.8 °C 1020.9 hPa SW 11.3 km/h 22.5 km/h 58% 0 mm
20:10 9.6 °C 1.7 °C 1020.9 hPa SSW 9.7 km/h 22.5 km/h 58% 0 mm
20:15 9.6 °C 1.7 °C 1020.9 hPa SSW 11.3 km/h 22.5 km/h 58% 0 mm
20:20 9.4 °C 1.6 °C 1020.5 hPa SSW 11.3 km/h 24.1 km/h 58% 0 mm
20:30 9.4 °C 1.6 °C 1020.5 hPa SSW 12.9 km/h 22.5 km/h 58% 0 mm
20:35 9.4 °C 1.8 °C 1020.5 hPa SSW 12.9 km/h 22.5 km/h 59% 0 mm
20:45 9.3 °C 1.7 °C 1020.2 hPa SW 11.3 km/h 24.1 km/h 59% 0 mm
20:50 9.4 °C 1.8 °C 1020.2 hPa SW 12.9 km/h 20.9 km/h 59% 0 mm
20:55 9.3 °C 1.7 °C 1019.9 hPa SSW 11.3 km/h 20.9 km/h 59% 0 mm
21:00 9.3 °C 1.7 °C 1019.9 hPa SSW 11.3 km/h 20.9 km/h 59% 0 mm
21:05 9.3 °C 1.7 °C 1019.9 hPa SSW 11.3 km/h 22.5 km/h 59% 0 mm
21:10 9.2 °C 1.6 °C 1019.9 hPa SW 9.7 km/h 22.5 km/h 59% 0 mm
21:15 9.2 °C 1.8 °C 1019.9 hPa SW 12.9 km/h 22.5 km/h 60% 0 mm
21:20 9.1 °C 1.7 °C 1019.9 hPa SSW 11.3 km/h 20.9 km/h 60% 0 mm
21:25 9.1 °C 1.8 °C 1019.9 hPa SSW 11.3 km/h 22.5 km/h 60% 0 mm
21:35 9.1 °C 1.8 °C 1019.5 hPa SSW 11.3 km/h 20.9 km/h 60% 0 mm
21:40 9.2 °C 1.8 °C 1019.5 hPa SSW 11.3 km/h 29 km/h 60% 0 mm
21:45 9.2 °C 1.8 °C 1019.5 hPa SSW 12.9 km/h 29 km/h 60% 0 mm
21:50 9.3 °C 1.9 °C 1019.5 hPa SSW 11.3 km/h 22.5 km/h 60% 0 mm
21:55 9.3 °C 1.9 °C 1019.9 hPa SSW 12.9 km/h 27.4 km/h 60% 0 mm
22:00 9.3 °C 1.9 °C 1019.9 hPa SSW 12.9 km/h 27.4 km/h 60% 0 mm
22:05 9.3 °C 1.7 °C 1019.9 hPa SSW 11.3 km/h 22.5 km/h 59% 0 mm
22:10 9.4 °C 2 °C 1020.2 hPa SSW 8 km/h 24.1 km/h 60% 0 mm
22:15 9.4 °C 1.8 °C 1020.2 hPa SSW 11.3 km/h 24.1 km/h 59% 0 mm
22:25 9.5 °C 1.9 °C 1020.2 hPa SSW 9.7 km/h 20.9 km/h 59% 0 mm
22:30 9.6 °C 1.9 °C 1019.9 hPa SSW 11.3 km/h 25.7 km/h 59% 0 mm
22:40 9.6 °C 1.9 °C 1019.9 hPa SSW 11.3 km/h 25.7 km/h 59% 0 mm
22:45 9.6 °C 1.9 °C 1019.9 hPa SSW 11.3 km/h 25.7 km/h 59% 0 mm
22:50 9.6 °C 1.9 °C 1019.9 hPa SSW 11.3 km/h 29 km/h 59% 0 mm
22:55 9.6 °C 1.9 °C 1019.9 hPa SSW 9.7 km/h 29 km/h 59% 0 mm
23:00 9.4 °C 1.8 °C 1019.9 hPa SSW 8 km/h 24.1 km/h 59% 0 mm
23:05 9.4 °C 1.8 °C 1019.5 hPa SSW 14.5 km/h 27.4 km/h 59% 0 mm
23:10 9.4 °C 1.8 °C 1019.5 hPa SSW 8 km/h 27.4 km/h 59% 0 mm
23:15 9.3 °C 1.7 °C 1019.5 hPa SSW 6.4 km/h 22.5 km/h 59% 0 mm
23:20 9.3 °C 1.7 °C 1019.5 hPa SSW 12.9 km/h 19.3 km/h 59% 0 mm
23:25 9.4 °C 1.8 °C 1019.5 hPa SSW 9.7 km/h 20.9 km/h 59% 0 mm
23:30 9.3 °C 1.7 °C 1019.5 hPa SSW 9.7 km/h 20.9 km/h 59% 0 mm
23:40 9.2 °C 1.8 °C 1019.5 hPa SSW 11.3 km/h 25.7 km/h 60% 0 mm
23:45 9.2 °C 1.6 °C 1019.5 hPa SSW 9.7 km/h 25.7 km/h 59% 0 mm
23:50 9.2 °C 1.6 °C 1019.2 hPa SSW 9.7 km/h 25.7 km/h 59% 0 mm
23:55 9.3 °C 1.7 °C 1019.2 hPa South 11.3 km/h 24.1 km/h 59% 0 mm
Westford Weather
Compliments of Weather Underground

 
 
Current Radar Loop:

Copyright © WestfordWeather.net 2007-2014. All rights reserved.